Time,TemperatureF,DewpointF,PressureIn,WindDirection,WindDirectionDegrees,WindSpeedMPH,WindSpeedGustMPH,Humidity,HourlyPrecipIn,Conditions,Clouds,dailyrainin,SoftwareType,DateUTC
2013-06-01 00:11:00,77.1,74.0,30.07,ENE,78,5.0,10.0,91,0.00,,,0.20,weatherlink.com 1.10,2013-06-01 04:11:00,
2013-06-01 00:26:00,76.9,74.0,30.06,ENE,65,3.0,10.0,91,0.00,,,0.20,weatherlink.com 1.10,2013-06-01 04:26:00,
2013-06-01 00:41:00,76.9,74.0,30.05,East,86,2.0,11.0,91,0.00,,,0.20,weatherlink.com 1.10,2013-06-01 04:41:00,
2013-06-01 00:56:00,77.1,74.0,30.05,ESE,110,2.0,9.0,91,0.00,,,0.20,weatherlink.com 1.10,2013-06-01 04:56:00,
2013-06-01 01:11:00,77.2,75.0,30.05,NE,45,5.0,9.0,92,0.00,,,0.20,weatherlink.com 1.10,2013-06-01 05:11:00,
2013-06-01 01:26:00,77.1,75.0,30.04,ENE,69,3.0,9.0,92,0.00,,,0.20,weatherlink.com 1.10,2013-06-01 05:26:00,
2013-06-01 01:41:00,77.0,75.0,30.04,ENE,70,2.0,4.0,92,0.00,,,0.20,weatherlink.com 1.10,2013-06-01 05:41:00,
2013-06-01 01:57:00,76.5,74.0,30.03,ESE,105,3.0,11.0,93,0.00,,,0.20,weatherlink.com 1.10,2013-06-01 05:57:00,
2013-06-01 02:12:00,76.0,74.0,30.03,ESE,102,3.0,5.0,94,0.00,,,0.20,weatherlink.com 1.10,2013-06-01 06:12:00,
2013-06-01 02:27:00,75.6,74.0,30.03,East,81,0.0,7.0,94,0.01,,,0.21,weatherlink.com 1.10,2013-06-01 06:27:00,
2013-06-01 02:42:00,75.5,74.0,30.02,East,91,0.0,2.0,95,0.01,,,0.21,weatherlink.com 1.10,2013-06-01 06:42:00,
2013-06-01 02:57:00,75.4,74.0,30.02,East,91,0.0,2.0,95,0.01,,,0.21,weatherlink.com 1.10,2013-06-01 06:57:00,
2013-06-01 03:12:00,75.5,74.0,30.02,East,91,0.0,1.0,96,0.02,,,0.22,weatherlink.com 1.10,2013-06-01 07:12:00,
2013-06-01 03:27:00,75.6,74.0,30.01,East,91,0.0,1.0,96,0.01,,,0.22,weatherlink.com 1.10,2013-06-01 07:27:00,
2013-06-01 03:42:00,75.7,75.0,30.01,East,91,0.0,2.0,96,0.01,,,0.22,weatherlink.com 1.10,2013-06-01 07:42:00,
2013-06-01 03:57:00,75.7,75.0,30.01,East,91,0.0,1.0,97,0.01,,,0.22,weatherlink.com 1.10,2013-06-01 07:57:00,
2013-06-01 04:12:00,75.6,74.0,30.00,East,91,0.0,0.0,96,0.00,,,0.22,weatherlink.com 1.10,2013-06-01 08:12:00,
2013-06-01 04:27:00,75.4,74.0,30.00,East,91,0.0,0.0,96,0.00,,,0.22,weatherlink.com 1.10,2013-06-01 08:27:00,
2013-06-01 04:42:00,75.3,74.0,30.00,East,91,0.0,0.0,97,0.00,,,0.22,weatherlink.com 1.10,2013-06-01 08:42:00,
2013-06-01 04:57:00,75.1,74.0,30.00,East,91,0.0,0.0,97,0.00,,,0.22,weatherlink.com 1.10,2013-06-01 08:57:00,
2013-06-01 05:12:00,75.0,74.0,30.00,East,91,0.0,0.0,97,0.00,,,0.22,weatherlink.com 1.10,2013-06-01 09:12:00,
2013-06-01 05:27:00,74.8,74.0,30.00,East,91,0.0,0.0,97,0.00,,,0.22,weatherlink.com 1.10,2013-06-01 09:27:00,
2013-06-01 05:42:00,74.7,74.0,30.00,East,91,0.0,0.0,97,0.00,,,0.22,weatherlink.com 1.10,2013-06-01 09:42:00,
2013-06-01 05:57:00,74.6,74.0,30.00,East,91,0.0,0.0,97,0.00,,,0.22,weatherlink.com 1.10,2013-06-01 09:57:00,
2013-06-01 06:12:00,74.6,74.0,30.01,East,91,0.0,0.0,98,0.00,,,0.22,weatherlink.com 1.10,2013-06-01 10:12:00,
2013-06-01 06:27:00,74.6,74.0,30.02,East,91,0.0,0.0,98,0.00,,,0.22,weatherlink.com 1.10,2013-06-01 10:27:00,
2013-06-01 06:42:00,74.4,74.0,30.02,East,91,0.0,0.0,98,0.00,,,0.22,weatherlink.com 1.10,2013-06-01 10:42:00,
2013-06-01 06:57:00,74.5,74.0,30.02,East,91,0.0,0.0,98,0.00,,,0.22,weatherlink.com 1.10,2013-06-01 10:57:00,
2013-06-01 07:12:00,75.0,74.0,30.03,East,79,0.0,0.0,98,0.00,,,0.22,weatherlink.com 1.10,2013-06-01 11:12:00,
2013-06-01 07:27:00,75.5,75.0,30.04,East,79,0.0,0.0,98,0.00,,,0.22,weatherlink.com 1.10,2013-06-01 11:27:00,
2013-06-01 07:42:00,76.2,76.0,30.04,East,79,0.0,1.0,98,0.00,,,0.22,weatherlink.com 1.10,2013-06-01 11:42:00,
2013-06-01 07:57:00,77.1,76.0,30.04,East,79,0.0,3.0,97,0.00,,,0.22,weatherlink.com 1.10,2013-06-01 11:57:00,
2013-06-01 08:12:00,78.4,77.0,30.05,East,79,2.0,5.0,95,0.00,,,0.22,weatherlink.com 1.10,2013-06-01 12:12:00,
2013-06-01 08:27:00,79.8,77.0,30.05,ENE,76,3.0,7.0,90,0.00,,,0.22,weatherlink.com 1.10,2013-06-01 12:27:00,
2013-06-01 08:42:00,80.5,76.0,30.05,ENE,64,2.0,9.0,86,0.00,,,0.22,weatherlink.com 1.10,2013-06-01 12:42:00,
2013-06-01 08:57:00,80.7,76.0,30.05,East,82,8.0,8.0,86,0.00,,,0.22,weatherlink.com 1.10,2013-06-01 12:57:00,
2013-06-01 09:12:00,81.4,76.0,30.05,ENE,76,2.0,10.0,83,0.00,,,0.00,weatherlink.com 1.10,2013-06-01 13:12:00,
2013-06-01 09:27:00,82.2,77.0,30.05,ENE,78,3.0,11.0,83,0.01,,,0.01,weatherlink.com 1.10,2013-06-01 13:27:00,
2013-06-01 09:42:00,83.1,76.0,30.05,East,101,2.0,11.0,80,0.01,,,0.01,weatherlink.com 1.10,2013-06-01 13:42:00,
2013-06-01 09:57:00,83.7,77.0,30.05,ENE,63,7.0,7.0,80,0.01,,,0.01,weatherlink.com 1.10,2013-06-01 13:57:00,
2013-06-01 10:12:00,84.2,76.0,30.05,ENE,69,4.0,9.0,77,0.01,,,0.01,weatherlink.com 1.10,2013-06-01 14:12:00,
2013-06-01 10:27:00,83.8,77.0,30.05,East,80,5.0,11.0,79,0.00,,,0.01,weatherlink.com 1.10,2013-06-01 14:27:00,
2013-06-01 10:42:00,83.9,77.0,30.05,ESE,121,5.0,10.0,79,0.00,,,0.01,weatherlink.com 1.10,2013-06-01 14:42:00,
2013-06-01 10:57:00,83.5,76.0,30.05,NE,53,6.0,12.0,79,0.00,,,0.01,weatherlink.com 1.10,2013-06-01 14:57:00,
2013-06-01 11:12:00,83.1,76.0,30.06,SE,136,6.0,11.0,78,0.00,,,0.01,weatherlink.com 1.10,2013-06-01 15:12:00,
2013-06-01 11:27:00,84.3,76.0,30.05,ENE,71,3.0,12.0,77,0.00,,,0.01,weatherlink.com 1.10,2013-06-01 15:27:00,
2013-06-01 11:42:00,84.3,76.0,30.05,ESE,115,5.0,12.0,77,0.00,,,0.01,weatherlink.com 1.10,2013-06-01 15:42:00,
2013-06-01 11:57:00,82.4,76.0,30.05,NNE,33,6.0,11.0,80,0.00,,,0.01,weatherlink.com 1.10,2013-06-01 15:57:00,
2013-06-01 12:12:00,82.3,76.0,30.05,ENE,57,13.0,14.0,80,0.00,,,0.01,weatherlink.com 1.10,2013-06-01 16:12:00,
2013-06-01 12:27:00,83.1,76.0,30.05,ESE,123,2.0,10.0,78,0.00,,,0.01,weatherlink.com 1.10,2013-06-01 16:27:00,
2013-06-01 12:42:00,83.6,76.0,30.04,ENE,57,11.0,15.0,77,0.00,,,0.01,weatherlink.com 1.10,2013-06-01 16:42:00,
2013-06-01 12:57:00,83.5,76.0,30.04,East,82,5.0,15.0,77,0.00,,,0.01,weatherlink.com 1.10,2013-06-01 16:57:00,
2013-06-01 13:12:00,82.9,76.0,30.04,ESE,107,5.0,13.0,79,0.00,,,0.01,weatherlink.com 1.10,2013-06-01 17:12:00,
2013-06-01 13:27:00,81.5,75.0,30.04,ENE,75,4.0,15.0,81,0.00,,,0.01,weatherlink.com 1.10,2013-06-01 17:27:00,
2013-06-01 13:42:00,81.1,76.0,30.04,ENE,73,3.0,15.0,83,0.00,,,0.01,weatherlink.com 1.10,2013-06-01 17:42:00,
2013-06-01 13:57:00,80.9,76.0,30.03,NE,37,4.0,12.0,84,0.00,,,0.01,weatherlink.com 1.10,2013-06-01 17:57:00,
2013-06-01 14:13:00,81.0,76.0,30.03,East,80,3.0,12.0,84,0.00,,,0.01,weatherlink.com 1.10,2013-06-01 18:13:00,
2013-06-01 14:28:00,81.2,76.0,30.02,ENE,71,3.0,11.0,84,0.00,,,0.01,weatherlink.com 1.10,2013-06-01 18:28:00,
2013-06-01 14:43:00,81.0,76.0,30.02,East,92,3.0,14.0,84,0.00,,,0.01,weatherlink.com 1.10,2013-06-01 18:43:00,
2013-06-01 14:58:00,80.9,76.0,30.02,East,98,2.0,10.0,84,0.00,,,0.01,weatherlink.com 1.10,2013-06-01 18:58:00,
2013-06-01 15:13:00,80.7,76.0,30.02,NE,53,6.0,11.0,84,0.00,,,0.01,weatherlink.com 1.10,2013-06-01 19:13:00,
2013-06-01 15:28:00,80.4,75.0,30.02,ENE,78,8.0,13.0,84,0.00,,,0.01,weatherlink.com 1.10,2013-06-01 19:28:00,
2013-06-01 15:43:00,79.2,75.0,30.02,NE,55,4.0,11.0,87,0.00,,,0.01,weatherlink.com 1.10,2013-06-01 19:43:00,
2013-06-01 15:58:00,78.1,75.0,30.02,ESE,105,5.0,11.0,89,0.00,,,0.01,weatherlink.com 1.10,2013-06-01 19:58:00,
2013-06-01 16:13:00,76.4,74.0,30.02,ESE,107,5.0,11.0,93,0.15,,,0.16,weatherlink.com 1.10,2013-06-01 20:13:00,
2013-06-01 16:28:00,74.9,73.0,30.02,ENE,76,5.0,11.0,95,0.21,,,0.22,weatherlink.com 1.10,2013-06-01 20:28:00,
2013-06-01 16:43:00,75.1,74.0,30.02,East,88,3.0,7.0,96,0.23,,,0.24,weatherlink.com 1.10,2013-06-01 20:43:00,
2013-06-01 16:58:00,75.4,74.0,30.02,East,81,0.0,4.0,96,0.23,,,0.24,weatherlink.com 1.10,2013-06-01 20:58:00,
2013-06-01 17:13:00,75.6,75.0,30.02,East,81,0.0,1.0,97,0.08,,,0.24,weatherlink.com 1.10,2013-06-01 21:13:00,
2013-06-01 17:28:00,75.3,74.0,30.00,East,88,1.0,6.0,96,0.02,,,0.24,weatherlink.com 1.10,2013-06-01 21:28:00,
2013-06-01 17:43:00,75.4,75.0,30.00,East,88,1.0,3.0,97,0.00,,,0.24,weatherlink.com 1.10,2013-06-01 21:43:00,
2013-06-01 17:58:00,75.4,75.0,30.00,East,90,2.0,6.0,97,0.00,,,0.24,weatherlink.com 1.10,2013-06-01 21:58:00,
2013-06-01 18:13:00,75.6,75.0,30.02,East,90,0.0,1.0,97,0.00,,,0.24,weatherlink.com 1.10,2013-06-01 22:13:00,
2013-06-01 18:28:00,75.8,75.0,30.03,East,90,1.0,1.0,97,0.00,,,0.24,weatherlink.com 1.10,2013-06-01 22:28:00,
2013-06-01 18:43:00,75.9,75.0,30.02,East,90,0.0,1.0,97,0.00,,,0.24,weatherlink.com 1.10,2013-06-01 22:43:00,
2013-06-01 18:58:00,76.0,75.0,30.02,East,90,0.0,1.0,97,0.00,,,0.24,weatherlink.com 1.10,2013-06-01 22:58:00,
2013-06-01 19:13:00,75.9,75.0,30.02,East,90,0.0,1.0,97,0.00,,,0.24,weatherlink.com 1.10,2013-06-01 23:13:00,
2013-06-01 19:28:00,75.9,75.0,30.02,East,90,0.0,1.0,97,0.00,,,0.24,weatherlink.com 1.10,2013-06-01 23:28:00,
2013-06-01 19:43:00,76.0,75.0,30.03,East,90,0.0,1.0,97,0.00,,,0.24,weatherlink.com 1.10,2013-06-01 23:43:00,
2013-06-01 19:58:00,76.0,75.0,30.02,East,90,0.0,1.0,97,0.00,,,0.24,weatherlink.com 1.10,2013-06-01 23:58:00,
2013-06-01 20:13:00,75.8,75.0,30.03,East,90,0.0,1.0,97,0.00,,,0.24,weatherlink.com 1.10,2013-06-02 00:13:00,
2013-06-01 20:28:00,75.8,75.0,30.03,East,90,0.0,3.0,97,0.00,,,0.24,weatherlink.com 1.10,2013-06-02 00:28:00,
2013-06-01 20:43:00,75.7,75.0,30.03,East,90,0.0,3.0,97,0.00,,,0.24,weatherlink.com 1.10,2013-06-02 00:43:00,
2013-06-01 20:58:00,75.6,75.0,30.03,East,90,0.0,3.0,97,0.00,,,0.24,weatherlink.com 1.10,2013-06-02 00:58:00,
2013-06-01 21:13:00,75.5,75.0,30.02,East,90,0.0,1.0,97,0.00,,,0.24,weatherlink.com 1.10,2013-06-02 01:13:00,
2013-06-01 21:28:00,75.6,75.0,30.03,East,90,0.0,0.0,97,0.00,,,0.24,weatherlink.com 1.10,2013-06-02 01:28:00,
2013-06-01 21:43:00,75.5,75.0,30.03,East,90,0.0,6.0,97,0.00,,,0.24,weatherlink.com 1.10,2013-06-02 01:43:00,
2013-06-01 21:58:00,75.3,74.0,30.04,East,90,0.0,2.0,97,0.00,,,0.24,weatherlink.com 1.10,2013-06-02 01:58:00,
2013-06-01 22:13:00,75.3,74.0,30.03,East,90,1.0,3.0,97,0.00,,,0.24,weatherlink.com 1.10,2013-06-02 02:13:00,
2013-06-01 22:28:00,75.0,74.0,30.04,East,90,2.0,3.0,97,0.00,,,0.24,weatherlink.com 1.10,2013-06-02 02:28:00,
2013-06-01 22:43:00,74.9,74.0,30.04,East,90,0.0,1.0,97,0.00,,,0.24,weatherlink.com 1.10,2013-06-02 02:43:00,
2013-06-01 22:58:00,74.8,74.0,30.04,East,90,0.0,1.0,97,0.00,,,0.24,weatherlink.com 1.10,2013-06-02 02:58:00,
2013-06-01 23:13:00,74.8,74.0,30.05,East,90,0.0,2.0,97,0.00,,,0.24,weatherlink.com 1.10,2013-06-02 03:13:00,
2013-06-01 23:28:00,74.2,73.0,30.04,East,90,0.0,3.0,97,0.00,,,0.24,weatherlink.com 1.10,2013-06-02 03:28:00,
2013-06-01 23:43:00,73.9,73.0,30.04,East,90,0.0,3.0,97,0.00,,,0.24,weatherlink.com 1.10,2013-06-02 03:43:00,
2013-06-01 23:58:00,74.2,73.0,30.04,East,90,1.0,2.0,97,0.00,,,0.24,weatherlink.com 1.10,2013-06-02 03:58:00,